createdAt,value
2023-02-11T00:01:23.830Z,100187.36
2023-02-11T00:03:54.438Z,100181.48
2023-02-11T00:06:25.883Z,100177.27
2023-02-11T00:08:56.610Z,100180.19
2023-02-11T00:11:30.276Z,100173.55
2023-02-11T00:14:02.850Z,100174.47
2023-02-11T00:16:33.486Z,100179.52
2023-02-11T00:19:05.579Z,100177.99
2023-02-11T00:21:36.476Z,100176.38
2023-02-11T00:24:07.582Z,100174.73
2023-02-11T00:26:38.526Z,100161.55
2023-02-11T00:29:12.352Z,100161.80
2023-02-11T00:31:44.181Z,100165.16
2023-02-11T00:34:14.613Z,100165.08
2023-02-11T00:36:50.922Z,100162.98
2023-02-11T00:39:21.823Z,100161.27
2023-02-11T00:41:52.199Z,100161.30
2023-02-11T00:44:22.556Z,100156.13
2023-02-11T00:46:52.921Z,100160.05
2023-02-11T00:49:23.257Z,100165.70
2023-02-11T00:51:53.918Z,100164.27
2023-02-11T00:54:24.278Z,100166.33
2023-02-11T00:56:54.674Z,100168.20
2023-02-11T00:59:25.014Z,100161.88
2023-02-11T01:01:55.404Z,100164.06
2023-02-11T01:04:25.782Z,100162.56
2023-02-11T01:06:56.218Z,100155.90
2023-02-11T01:09:27.694Z,100158.33
2023-02-11T01:11:58.027Z,100157.22
2023-02-11T01:14:28.761Z,100151.59
2023-02-11T01:16:59.103Z,100156.52
2023-02-11T01:19:29.457Z,100155.64
2023-02-11T01:21:59.909Z,100153.20
2023-02-11T01:24:30.249Z,100147.69
2023-02-11T01:27:00.668Z,100148.39
2023-02-11T01:29:31.018Z,100150.25
2023-02-11T01:32:02.312Z,100148.63
2023-02-11T01:34:32.825Z,100143.15
2023-02-11T01:37:03.389Z,100151.47
2023-02-11T01:39:35.462Z,100145.84
2023-02-11T01:42:06.776Z,100141.82
2023-02-11T01:44:39.996Z,100134.58
2023-02-11T01:47:10.552Z,100130.93
2023-02-11T01:49:42.737Z,100126.25
2023-02-11T01:52:15.603Z,100121.79
2023-02-11T01:55:05.100Z,100119.55
2023-02-11T01:57:38.395Z,100115.88
2023-02-11T02:00:13.043Z,100113.89
2023-02-11T02:02:50.140Z,100110.94
2023-02-11T02:05:25.704Z,100110.86
2023-02-11T02:08:00.046Z,100113.07
2023-02-11T02:10:31.524Z,100113.70
2023-02-11T02:13:01.996Z,100109.55
2023-02-11T02:15:35.186Z,100107.27
2023-02-11T02:18:14.216Z,100107.48
2023-02-11T02:21:12.369Z,100105.56
2023-02-11T02:24:01.574Z,100101.59
2023-02-11T02:26:57.399Z,100100.30
2023-02-11T02:30:25.226Z,100090.16
2023-02-11T02:33:20.328Z,100085.39
2023-02-11T02:35:57.687Z,100085.98
2023-02-11T02:38:31.688Z,100093.34
2023-02-11T02:41:04.382Z,100098.92
2023-02-11T02:43:36.812Z,100103.27
2023-02-11T02:46:15.135Z,100102.23
2023-02-11T02:48:46.103Z,100095.23
2023-02-11T02:51:30.813Z,100092.95
2023-02-11T02:54:18.066Z,100085.13
2023-02-11T02:56:51.357Z,100086.98
2023-02-11T02:59:41.770Z,100085.29
2023-02-11T03:02:17.287Z,100075.61
2023-02-11T03:04:53.917Z,100073.92
2023-02-11T03:07:28.889Z,100073.38
2023-02-11T03:10:03.574Z,100073.86
2023-02-11T03:12:35.573Z,100077.86
2023-02-11T03:15:09.153Z,100079.94
2023-02-11T03:17:42.005Z,100080.94
2023-02-11T03:20:14.824Z,100083.50
2023-02-11T03:22:50.805Z,100082.64
2023-02-11T03:25:21.697Z,100087.35
2023-02-11T03:27:55.400Z,100078.06
2023-02-11T03:30:29.818Z,100070.90
2023-02-11T03:33:02.311Z,100063.16
2023-02-11T03:35:37.028Z,100053.88
2023-02-11T03:38:10.400Z,100043.58
2023-02-11T03:40:41.828Z,100037.15
2023-02-11T03:43:17.114Z,100032.68
2023-02-11T03:45:48.761Z,100023.96
2023-02-11T03:48:23.840Z,100012.65
2023-02-11T03:50:55.118Z,100005.41
2023-02-11T03:53:25.552Z,100000.39
2023-02-11T03:55:57.707Z,100001.40
2023-02-11T03:58:28.343Z,99997.75
2023-02-11T04:00:58.685Z,99995.66
2023-02-11T04:03:29.031Z,99995.22
2023-02-11T04:05:59.426Z,99994.95
2023-02-11T04:08:29.998Z,99995.99
2023-02-11T04:11:00.460Z,100001.48
2023-02-11T04:13:30.793Z,100009.84
2023-02-11T04:16:01.165Z,100016.70
2023-02-11T04:18:31.514Z,100020.94
2023-02-11T04:21:01.855Z,100022.03
2023-02-11T04:23:32.148Z,100018.63
2023-02-11T04:26:02.486Z,100024.57
2023-02-11T04:28:32.896Z,100031.31
2023-02-11T04:31:03.398Z,100038.20
2023-02-11T04:33:33.869Z,100041.82
2023-02-11T04:36:04.335Z,100040.30
2023-02-11T04:38:34.626Z,100037.48
2023-02-11T04:41:04.979Z,100029.48
2023-02-11T04:43:35.255Z,100023.14
2023-02-11T04:46:05.827Z,100020.04
2023-02-11T04:48:36.363Z,100016.81
2023-02-11T04:51:07.094Z,100014.92
2023-02-11T04:53:37.400Z,100012.88
2023-02-11T04:56:08.471Z,100012.95
2023-02-11T04:58:38.880Z,100017.45
2023-02-11T05:01:10.519Z,100013.85
2023-02-11T05:03:41.216Z,100006.04
2023-02-11T05:06:12.469Z,99992.70
2023-02-11T05:08:42.971Z,99980.63
2023-02-11T05:11:17.966Z,99983.13
2023-02-11T05:13:48.558Z,99985.42
2023-02-11T05:16:19.385Z,99985.85
2023-02-11T05:18:52.577Z,99976.78
2023-02-11T05:21:23.099Z,99968.66
2023-02-11T05:23:53.522Z,99974.30
2023-02-11T05:26:23.943Z,99983.48
2023-02-11T05:28:54.232Z,99994.69
2023-02-11T05:31:24.551Z,100001.64
2023-02-11T05:33:54.901Z,100005.44
2023-02-11T05:36:25.253Z,100002.97
2023-02-11T05:38:55.539Z,100001.80
2023-02-11T05:41:25.874Z,100010.52
2023-02-11T05:43:56.166Z,100008.14
2023-02-11T05:46:26.504Z,100013.40
2023-02-11T05:48:57.376Z,100017.35
2023-02-11T05:51:27.789Z,100016.55
2023-02-11T05:53:58.809Z,100016.23
2023-02-11T05:56:29.206Z,100019.61
2023-02-11T05:59:00.868Z,100021.92
2023-02-11T06:01:31.175Z,100014.57
2023-02-11T06:04:01.603Z,100017.27
2023-02-11T06:06:32.053Z,100020.95
2023-02-11T06:09:02.450Z,100012.46
2023-02-11T06:11:32.815Z,100017.88
2023-02-11T06:14:03.500Z,100018.16
2023-02-11T06:16:34.840Z,100022.38
2023-02-11T06:19:05.269Z,100033.55
2023-02-11T06:21:43.429Z,100032.64
2023-02-11T06:24:14.328Z,100030.90
2023-02-11T06:26:44.622Z,100025.46
2023-02-11T06:29:14.937Z,100015.39
2023-02-11T06:31:45.694Z,100006.16
2023-02-11T06:34:16.137Z,99995.26
2023-02-11T06:36:46.454Z,99991.71
2023-02-11T06:39:16.990Z,99990.71
2023-02-11T06:41:47.345Z,99990.16
2023-02-11T06:44:17.650Z,99991.52
2023-02-11T06:46:48.167Z,99985.34
2023-02-11T06:49:18.599Z,99989.86
2023-02-11T06:51:49.292Z,99988.05
2023-02-11T06:54:19.808Z,99990.25
2023-02-11T06:56:50.143Z,99995.45
2023-02-11T06:59:21.198Z,99991.64
2023-02-11T07:01:51.630Z,99972.27
2023-02-11T07:04:22.652Z,99970.56
2023-02-11T07:06:52.964Z,99974.41
2023-02-11T07:09:23.320Z,99968.85
2023-02-11T07:11:53.640Z,99973.05
2023-02-11T07:14:23.927Z,99977.32
2023-02-11T07:16:54.320Z,99980.28
2023-02-11T07:19:24.706Z,99987.09
2023-02-11T07:21:55.204Z,99986.11
2023-02-11T07:24:25.829Z,99992.08
2023-02-11T07:26:56.845Z,99994.29
2023-02-11T07:29:27.351Z,99990.05
2023-02-11T07:31:57.703Z,99991.15
2023-02-11T07:34:28.080Z,99980.94
2023-02-11T07:36:58.584Z,99975.31
2023-02-11T07:39:29.451Z,99977.61
2023-02-11T07:42:00.243Z,99979.82
2023-02-11T07:44:30.898Z,99980.13
2023-02-11T07:47:01.426Z,99981.13
2023-02-11T07:49:32.230Z,99993.01
2023-02-11T07:52:02.547Z,99992.80
2023-02-11T07:54:32.892Z,99999.34
2023-02-11T07:57:03.221Z,100002.34
2023-02-11T07:59:33.692Z,100003.30
2023-02-11T08:02:04.214Z,100004.61
2023-02-11T08:04:35.161Z,100007.41
2023-02-11T08:07:05.522Z,100005.68
2023-02-11T08:09:36.478Z,100004.26
2023-02-11T08:12:07.417Z,100006.42
2023-02-11T08:14:37.933Z,100009.84
2023-02-11T08:17:08.206Z,100014.45
2023-02-11T08:19:39.592Z,100011.98
2023-02-11T08:22:09.949Z,100019.50
2023-02-11T08:24:41.099Z,100028.48
2023-02-11T08:27:11.389Z,100030.41
2023-02-11T08:29:41.803Z,100031.25
2023-02-11T08:32:12.175Z,100038.33
2023-02-11T08:34:44.165Z,100037.25
2023-02-11T08:37:16.414Z,100043.92
2023-02-11T08:39:49.153Z,100052.46
2023-02-11T08:42:20.987Z,100052.98
2023-02-11T08:44:52.084Z,100049.73
2023-02-11T08:47:24.457Z,100050.54
2023-02-11T08:49:56.190Z,100056.32
2023-02-11T08:52:28.471Z,100062.84
2023-02-11T08:55:00.180Z,100066.32
2023-02-11T08:57:32.494Z,100067.48
2023-02-11T09:00:05.287Z,100067.40
2023-02-11T09:02:37.534Z,100070.80
2023-02-11T09:05:10.339Z,100079.85
2023-02-11T09:07:41.830Z,100085.29
2023-02-11T09:10:14.209Z,100086.92
2023-02-11T09:12:46.517Z,100085.54
2023-02-11T09:15:18.233Z,100091.60
2023-02-11T09:17:50.304Z,100090.23
2023-02-11T09:20:23.322Z,100093.89
2023-02-11T09:22:56.300Z,100097.36
2023-02-11T09:25:28.242Z,100100.59
2023-02-11T09:28:01.320Z,100097.91
2023-02-11T09:30:33.849Z,100108.10
2023-02-11T09:33:05.262Z,100111.22
2023-02-11T09:42:50.828Z,100106.23
2023-02-11T09:45:23.470Z,100109.53
2023-02-11T09:47:57.392Z,100112.38
2023-02-11T09:50:31.351Z,100119.77
2023-02-11T09:53:04.555Z,100122.90
2023-02-11T09:55:38.018Z,100118.96
2023-02-11T09:58:14.720Z,100117.83
2023-02-11T10:00:48.341Z,100118.91
2023-02-11T10:03:43.498Z,100118.96
2023-02-11T10:06:23.188Z,100119.38
2023-02-11T10:09:03.079Z,100127.19
2023-02-11T10:11:38.138Z,100125.31
2023-02-11T10:14:19.629Z,100127.19
2023-02-11T10:17:00.000Z,100132.39
2023-02-11T10:19:39.967Z,100132.08
2023-02-11T10:22:16.605Z,100131.44
2023-02-11T10:24:53.585Z,100132.16
2023-02-11T10:27:28.549Z,100129.83
2023-02-11T10:30:03.592Z,100128.29
2023-02-11T10:32:39.688Z,100124.54
2023-02-11T10:35:17.978Z,100128.78
2023-02-11T10:37:48.632Z,100130.86
2023-02-11T10:40:20.452Z,100133.57
2023-02-11T10:42:55.406Z,100139.59
2023-02-11T10:45:34.429Z,100136.54
2023-02-11T10:48:07.082Z,100131.23
2023-02-11T10:50:37.994Z,100127.33
2023-02-11T10:53:20.942Z,100117.71
2023-02-11T10:55:57.209Z,100113.23
2023-02-11T10:58:29.444Z,100115.58
2023-02-11T11:01:01.093Z,100114.56
2023-02-11T11:03:35.228Z,100113.87
2023-02-11T11:06:08.706Z,100105.13
2023-02-11T11:08:44.876Z,100102.06
2023-02-11T11:11:16.814Z,100092.79
2023-02-11T11:13:59.122Z,100093.20
2023-02-11T11:16:30.222Z,100095.20
2023-02-11T11:19:21.296Z,100099.92
2023-02-11T11:21:53.095Z,100108.14
2023-02-11T11:24:27.656Z,100110.13
2023-02-11T11:27:00.879Z,100116.98
2023-02-11T11:29:34.068Z,100121.11
2023-02-11T11:32:06.486Z,100124.23
2023-02-11T11:34:40.482Z,100119.42
2023-02-11T11:37:19.282Z,100120.54
2023-02-11T11:39:56.924Z,100124.41
2023-02-11T11:42:31.623Z,100130.71
2023-02-11T11:45:04.619Z,100138.20
2023-02-11T11:47:37.529Z,100130.52
2023-02-11T11:50:28.072Z,100124.08
2023-02-11T11:53:04.136Z,100114.91
2023-02-11T11:55:37.550Z,100109.34
2023-02-11T11:58:08.187Z,100104.80
2023-02-11T12:00:44.912Z,100105.72
2023-02-11T12:04:01.353Z,100104.20
2023-02-11T12:06:41.077Z,100104.27
2023-02-11T12:09:20.695Z,100103.32
2023-02-11T12:12:01.573Z,100104.19
2023-02-11T12:14:39.740Z,100102.68
2023-02-11T12:17:15.957Z,100099.47
2023-02-11T12:19:57.763Z,100091.14
2023-02-11T12:22:40.623Z,100082.48
2023-02-11T12:25:27.161Z,100086.30
2023-02-11T12:28:17.890Z,100094.20
2023-02-11T12:30:58.377Z,100099.86
2023-02-11T12:33:39.287Z,100102.23
2023-02-11T12:36:13.731Z,100103.66
2023-02-11T12:38:55.836Z,100102.74
2023-02-11T12:41:54.971Z,100101.27
2023-02-11T12:44:33.977Z,100102.04
2023-02-11T12:47:15.535Z,100099.81
2023-02-11T12:50:00.832Z,100095.86
2023-02-11T12:52:43.543Z,100092.30
2023-02-11T12:55:20.598Z,100090.24
2023-02-11T12:57:52.532Z,100088.36
2023-02-11T13:00:25.846Z,100095.21
2023-02-11T13:03:03.240Z,100093.33
2023-02-11T13:05:40.692Z,100094.73
2023-02-11T13:08:14.250Z,100090.80
2023-02-11T13:10:47.217Z,100084.60
2023-02-11T13:13:19.555Z,100081.39
2023-02-11T13:15:53.318Z,100076.45
2023-02-11T13:18:33.635Z,100078.21
2023-02-11T13:21:20.797Z,100072.86
2023-02-11T13:23:56.684Z,100076.12
2023-02-11T13:26:30.845Z,100079.84
2023-02-11T13:29:14.213Z,100072.61
2023-02-11T13:31:44.713Z,100065.30
2023-02-11T13:34:28.703Z,100073.66
2023-02-11T13:36:59.645Z,100067.70
2023-02-11T13:39:30.211Z,100067.26
2023-02-11T13:42:06.412Z,100069.10
2023-02-11T13:44:37.622Z,100066.88
2023-02-11T13:47:08.346Z,100065.00
2023-02-11T13:49:41.480Z,100062.05
2023-02-11T13:52:25.905Z,100063.42
2023-02-11T13:54:58.503Z,100063.16
2023-02-11T13:57:37.924Z,100063.66
2023-02-11T14:00:41.466Z,100067.54
2023-02-11T14:03:53.752Z,100074.17
2023-02-11T14:06:44.640Z,100070.16
2023-02-11T14:09:39.315Z,100065.64
2023-02-11T14:12:34.310Z,100059.25
2023-02-11T14:15:24.086Z,100060.66
2023-02-11T14:17:55.769Z,100054.02
2023-02-11T14:20:38.163Z,100063.94
2023-02-11T14:23:17.788Z,100069.02
2023-02-11T14:25:56.784Z,100072.09
2023-02-11T14:28:32.910Z,100068.94
2023-02-11T14:31:07.334Z,100068.80
2023-02-11T14:33:55.133Z,100064.64
2023-02-11T14:36:46.408Z,100068.87
2023-02-11T14:39:23.141Z,100073.96
2023-02-11T14:41:53.580Z,100076.73
2023-02-11T14:44:25.791Z,100081.18
2023-02-11T14:46:57.040Z,100090.99
2023-02-11T14:49:30.874Z,100091.98
2023-02-11T14:52:07.653Z,100089.52
2023-02-11T14:54:38.279Z,100097.96
2023-02-11T14:57:17.041Z,100093.88
2023-02-11T14:59:58.958Z,100094.27
2023-02-11T15:02:33.646Z,100090.48
2023-02-11T15:05:26.042Z,100092.67
2023-02-11T15:07:58.130Z,100094.94
2023-02-11T15:10:34.203Z,100097.53
2023-02-11T15:13:05.150Z,100098.89
2023-02-11T15:15:42.250Z,100101.77
2023-02-11T15:18:21.368Z,100105.34
2023-02-11T15:20:53.257Z,100103.15
2023-02-11T15:23:26.137Z,100100.68
2023-02-11T15:25:56.613Z,100111.94
2023-02-11T15:28:30.408Z,100110.71
2023-02-11T15:31:03.874Z,100111.04
2023-02-11T15:33:34.929Z,100111.77
2023-02-11T15:36:06.154Z,100114.61
2023-02-11T15:38:36.576Z,100118.15
2023-02-11T15:41:08.110Z,100121.11
2023-02-11T15:43:46.445Z,100126.63
2023-02-11T15:46:19.719Z,100122.63
2023-02-11T15:48:51.975Z,100123.17
2023-02-11T15:51:25.244Z,100128.26
2023-02-11T15:53:58.832Z,100129.85
2023-02-11T15:56:33.072Z,100130.34
2023-02-11T15:59:14.017Z,100136.63
2023-02-11T16:01:45.400Z,100142.20
2023-02-11T16:04:20.702Z,100131.28
2023-02-11T16:06:51.907Z,100127.27
2023-02-11T16:09:34.321Z,100126.75
2023-02-11T16:12:18.930Z,100131.67
2023-02-11T16:14:49.293Z,100138.16
2023-02-11T16:17:27.469Z,100138.58
2023-02-11T16:19:58.482Z,100137.96
2023-02-11T16:22:35.338Z,100134.45
2023-02-11T16:25:07.169Z,100131.02
2023-02-11T16:27:40.823Z,100133.30
2023-02-11T16:30:27.711Z,100136.73
2023-02-11T16:32:58.094Z,100143.56
2023-02-11T16:35:28.666Z,100146.04
2023-02-11T16:37:58.982Z,100146.91
2023-02-11T16:40:29.501Z,100143.89
2023-02-11T16:42:59.825Z,100139.88
2023-02-11T16:45:30.290Z,100146.22
2023-02-11T16:48:00.661Z,100149.87
2023-02-11T16:50:31.063Z,100148.16
2023-02-11T16:53:02.152Z,100150.73
2023-02-11T16:55:32.738Z,100149.96
2023-02-11T16:58:03.161Z,100154.54
2023-02-11T17:00:33.516Z,100155.05
2023-02-11T17:03:04.096Z,100153.52
2023-02-11T17:05:49.327Z,100155.77
2023-02-11T17:08:25.100Z,100153.49
2023-02-11T17:10:55.563Z,100157.42
2023-02-11T17:13:26.168Z,100158.27
2023-02-11T17:15:56.873Z,100163.73
2023-02-11T17:18:27.254Z,100166.42
2023-02-11T17:20:57.593Z,100175.75
2023-02-11T17:23:27.898Z,100178.19
2023-02-11T17:25:59.313Z,100173.92
2023-02-11T17:28:29.716Z,100171.35
2023-02-11T17:31:00.217Z,100176.08
2023-02-11T17:33:30.551Z,100176.58
2023-02-11T17:36:00.842Z,100181.70
2023-02-11T17:38:31.167Z,100176.57
2023-02-11T17:41:02.465Z,100166.76
2023-02-11T17:43:33.178Z,100173.83
2023-02-11T17:46:03.596Z,100185.16
2023-02-11T17:48:34.065Z,100183.83
2023-02-11T17:51:04.636Z,100192.61
2023-02-11T17:53:34.971Z,100194.18
2023-02-11T17:56:07.230Z,100191.66
2023-02-11T17:58:37.672Z,100189.83
2023-02-11T18:01:08.353Z,100191.04
2023-02-11T18:03:39.083Z,100191.66
2023-02-11T18:06:10.067Z,100194.52
2023-02-11T18:08:41.728Z,100196.39
2023-02-11T18:11:14.985Z,100196.61
2023-02-11T18:13:51.304Z,100193.83
2023-02-11T18:16:21.655Z,100196.16
2023-02-11T18:18:52.414Z,100189.66
2023-02-11T18:21:28.676Z,100190.32
2023-02-11T18:24:06.422Z,100197.96
2023-02-11T18:26:38.408Z,100198.80
2023-02-11T18:29:09.996Z,100191.42
2023-02-11T18:31:42.092Z,100184.05
2023-02-11T18:34:14.444Z,100182.09
2023-02-11T18:36:45.405Z,100179.11
2023-02-11T18:39:18.842Z,100181.14
2023-02-11T18:41:50.927Z,100180.98
2023-02-11T18:44:23.227Z,100182.79
2023-02-11T18:46:54.264Z,100185.28
2023-02-11T18:49:24.632Z,100188.90
2023-02-11T18:51:55.262Z,100188.09
2023-02-11T18:54:25.781Z,100196.18
2023-02-11T18:56:56.102Z,100197.77
2023-02-11T18:59:26.580Z,100198.51
2023-02-11T19:01:57.916Z,100193.77
2023-02-11T19:04:28.409Z,100193.42
2023-02-11T19:07:03.081Z,100198.35
2023-02-11T19:09:33.612Z,100207.39
2023-02-11T19:12:04.629Z,100205.27
2023-02-11T19:14:35.596Z,100204.06
2023-02-11T19:17:07.560Z,100206.67
2023-02-11T19:19:38.311Z,100207.73
2023-02-11T19:22:10.573Z,100212.05
2023-02-11T19:24:41.220Z,100211.90
2023-02-11T19:27:12.354Z,100218.75
2023-02-11T19:29:42.743Z,100231.34
2023-02-11T19:32:13.488Z,100231.71
2023-02-11T19:34:43.844Z,100229.33
2023-02-11T19:37:14.810Z,100235.66
2023-02-11T19:39:45.908Z,100245.58
2023-02-11T19:42:16.259Z,100240.36
2023-02-11T19:44:46.995Z,100245.97
2023-02-11T19:47:17.843Z,100240.12
2023-02-11T19:49:48.576Z,100242.53
2023-02-11T19:52:18.931Z,100243.54
2023-02-11T19:54:49.287Z,100242.30
2023-02-11T19:57:19.625Z,100243.13
2023-02-11T19:59:50.933Z,100239.11
2023-02-11T20:02:21.288Z,100235.60
2023-02-11T20:04:51.735Z,100234.73
2023-02-11T20:07:22.124Z,100236.33
2023-02-11T20:09:53.925Z,100233.95
2023-02-11T20:12:24.544Z,100233.30
2023-02-11T20:14:54.905Z,100229.85
2023-02-11T20:17:25.354Z,100231.86
2023-02-11T20:19:55.845Z,100234.91
2023-02-11T20:22:26.304Z,100234.25
2023-02-11T20:24:57.050Z,100234.26
2023-02-11T20:27:29.189Z,100235.52
2023-02-11T20:29:59.557Z,100235.02
2023-02-11T20:32:32.817Z,100239.10
2023-02-11T20:35:03.513Z,100237.65
2023-02-11T20:37:33.992Z,100238.29
2023-02-11T20:40:04.873Z,100233.61
2023-02-11T20:42:35.603Z,100235.17
2023-02-11T20:45:06.607Z,100232.52
2023-02-11T20:47:37.070Z,100235.81
2023-02-11T20:50:09.440Z,100236.64
2023-02-11T20:52:40.116Z,100234.26
2023-02-11T20:55:10.949Z,100236.34
2023-02-11T20:57:41.373Z,100238.89
2023-02-11T21:00:13.958Z,100237.48
2023-02-11T21:02:44.589Z,100237.29
2023-02-11T21:05:15.560Z,100231.33
2023-02-11T21:07:46.317Z,100229.20
2023-02-11T21:10:17.916Z,100224.73
2023-02-11T21:12:49.919Z,100220.44
2023-02-11T21:15:23.211Z,100222.69
2023-02-11T21:17:53.755Z,100223.16
2023-02-11T21:20:24.205Z,100225.11
2023-02-11T21:22:54.585Z,100228.27
2023-02-11T21:25:24.982Z,100234.77
2023-02-11T21:27:55.596Z,100245.12
2023-02-11T21:30:29.100Z,100238.64
2023-02-11T21:33:03.172Z,100255.24
2023-02-11T21:35:35.778Z,100252.66
2023-02-11T21:38:07.110Z,100260.55
2023-02-11T21:40:37.620Z,100259.48
2023-02-11T21:43:08.335Z,100272.20
2023-02-11T21:45:45.234Z,100272.69
2023-02-11T21:48:16.745Z,100273.52
2023-02-11T21:50:48.234Z,100272.58
2023-02-11T21:53:18.757Z,100271.26
2023-02-11T21:55:51.335Z,100273.16
2023-02-11T21:58:21.821Z,100287.13
2023-02-11T22:00:52.311Z,100290.77
2023-02-11T22:03:22.726Z,100294.68
2023-02-11T22:05:53.458Z,100288.00
2023-02-11T22:08:24.081Z,100288.27
2023-02-11T22:10:54.603Z,100285.73
2023-02-11T22:13:24.937Z,100287.42
2023-02-11T22:16:01.335Z,100284.67
2023-02-11T22:18:32.429Z,100277.63
2023-02-11T22:21:05.010Z,100281.09
2023-02-11T22:23:36.244Z,100283.06
2023-02-11T22:26:08.722Z,100284.11
2023-02-11T22:28:40.571Z,100279.45
2023-02-11T22:31:14.341Z,100274.61
2023-02-11T22:33:45.059Z,100279.09
2023-02-11T22:36:17.978Z,100279.71
2023-02-11T22:38:48.597Z,100277.61
2023-02-11T22:41:19.817Z,100266.47
2023-02-11T22:43:50.652Z,100263.20
2023-02-11T22:46:22.004Z,100269.33
2023-02-11T22:48:52.666Z,100267.03
2023-02-11T22:51:24.725Z,100261.63
2023-02-11T22:53:56.925Z,100270.40
2023-02-11T22:56:28.233Z,100270.48
2023-02-11T22:59:00.866Z,100273.71
2023-02-11T23:01:32.315Z,100274.15
2023-02-11T23:04:03.897Z,100278.80
2023-02-11T23:06:34.764Z,100282.40
2023-02-11T23:09:06.474Z,100287.69
2023-02-11T23:11:37.266Z,100287.85
2023-02-11T23:14:08.574Z,100285.31
2023-02-11T23:16:39.096Z,100289.30
2023-02-11T23:19:12.326Z,100293.09
2023-02-11T23:21:42.679Z,100295.51
2023-02-11T23:24:15.432Z,100296.33
2023-02-11T23:26:46.231Z,100303.15
2023-02-11T23:29:16.623Z,100305.19
2023-02-11T23:31:47.654Z,100305.42
2023-02-11T23:34:20.331Z,100308.38
2023-02-11T23:36:50.674Z,100310.10
2023-02-11T23:39:21.066Z,100318.69
2023-02-11T23:41:58.827Z,100321.78
2023-02-11T23:44:29.780Z,100317.05
2023-02-11T23:47:00.120Z,100316.70
2023-02-11T23:49:30.463Z,100320.42
2023-02-11T23:52:00.828Z,100319.05
2023-02-11T23:54:31.247Z,100316.52
2023-02-11T23:57:01.614Z,100313.28
2023-02-11T23:59:31.955Z,100307.90
